Iver Foss — WYE6442 — position and weather

sailwx.info

Track history (hours):
 
Tides and Currents Weather Stations Pressure Air Temp Water Temp Dewpoint Dewpoint Depression Visibility Wind Speed Wind Dir Waves Ship Positions

Iver Foss

Owner: FOSS MARITIME CO, SEATTLE, WA. More information available from US FCC via Universal Licensing System and Coast Guard Vessel Documentation Center.

Last reported at 2016-Dec-03 09:30 UTC. Time now 2016-Dec-03 09:40 UTC.
Position N 47°39' W 122°22'.

Type: Tug. MMSI: 368351000.

Date/timePositionNaut miles runAvg speedWind from/ knotsBaromVisibWave heightAir tempDewpointWater temp
2016-Dec-03 09:30N 47°39' W 122°22'0 0.0
2016-Dec-03 08:33N 47°39' W 122°22'0 0.0
2016-Dec-03 07:33N 47°39' W 122°22'0 0.0
2016-Dec-03 06:33N 47°39' W 122°22'0 0.0
2016-Dec-03 05:32N 47°39' W 122°22'0 0.0
2016-Dec-03 04:32N 47°39' W 122°22'0 0.0
2016-Dec-03 03:32N 47°39' W 122°22'0 0.0
2016-Dec-03 02:33N 47°39' W 122°22'0 0.0
2016-Dec-03 01:33N 47°39' W 122°22'0 0.0
2016-Dec-03 00:33N 47°39' W 122°22'0 0.0
2016-Dec-02 23:32N 47°39' W 122°22'0 0.0
2016-Dec-02 22:32N 47°39' W 122°22'0 0.0
2016-Dec-02 21:33N 47°39' W 122°22'0 0.0
2016-Dec-02 20:32N 47°39' W 122°22'0 0.0
2016-Dec-02 19:33N 47°39' W 122°22'0 0.0
2016-Dec-02 18:33N 47°39' W 122°22'0 0.0
2016-Dec-02 17:24N 47°39' W 122°22'0 0.0
2016-Dec-02 16:32N 47°39' W 122°22'0 0.0
2016-Dec-02 15:26N 47°39' W 122°22'0 0.0
2016-Dec-02 14:33N 47°39' W 122°22'0 0.0
2016-Dec-02 13:33N 47°39' W 122°22'0 0.0
2016-Dec-02 12:33N 47°39' W 122°22'0 0.0
2016-Dec-02 11:33N 47°39' W 122°22'0 0.0
2016-Dec-02 10:33N 47°39' W 122°22'0 0.0
2016-Dec-02 09:30N 47°39' W 122°22'0 0.0
2016-Dec-02 08:32N 47°39' W 122°22'0 0.0
2016-Dec-02 07:33N 47°39' W 122°22'0 0.0
2016-Dec-02 06:33N 47°39' W 122°22'0 0.0
2016-Dec-02 05:33N 47°39' W 122°22'0 0.0
2016-Dec-02 04:33N 47°39' W 122°22'0 0.0
2016-Dec-02 03:33N 47°39' W 122°22'0 0.0
2016-Dec-02 02:33N 47°39' W 122°22'0 0.0
2016-Dec-02 01:30N 47°39' W 122°22'0 0.0
2016-Dec-02 00:32N 47°39' W 122°22'0 0.0
2016-Dec-01 23:29N 47°39' W 122°22'0 0.0
2016-Dec-01 22:33N 47°39' W 122°22'0 0.0
2016-Dec-01 21:33N 47°39' W 122°22'0 0.0
2016-Dec-01 20:33N 47°39' W 122°22'0 0.0
2016-Dec-01 19:29N 47°39' W 122°22'0 0.0
2016-Dec-01 18:33N 47°39' W 122°22'0 0.0
2016-Dec-01 17:33N 47°39' W 122°22'0 0.0
2016-Dec-01 16:33N 47°39' W 122°22'0 0.0
2016-Dec-01 15:32N 47°39' W 122°22'0 0.0
2016-Dec-01 14:33N 47°39' W 122°22'0 0.0
2016-Dec-01 13:32N 47°39' W 122°22'0 0.0
2016-Dec-01 12:33N 47°39' W 122°22'0 0.0
2016-Dec-01 11:33N 47°39' W 122°22'0 0.0
2016-Dec-01 10:32N 47°39' W 122°22'0 0.0
2016-Dec-01 09:32N 47°39' W 122°22'0 0.0
2016-Dec-01 08:33N 47°39' W 122°22'0 0.0
2016-Dec-01 07:32N 47°39' W 122°22'0 0.0
2016-Dec-01 06:33N 47°39' W 122°22'0 0.0
2016-Dec-01 05:33N 47°39' W 122°22'0 0.0
2016-Dec-01 04:33N 47°39' W 122°22'0 0.0
2016-Dec-01 03:30N 47°39' W 122°22'0 0.0
2016-Dec-01 02:32N 47°39' W 122°22'0 0.0
2016-Dec-01 01:33N 47°39' W 122°22'0 0.0
2016-Dec-01 00:32N 47°39' W 122°22'0 0.0
2016-Nov-30 23:32N 47°39' W 122°22'0 0.0
2016-Nov-30 22:32N 47°39' W 122°22'0 0.0
2016-Nov-30 21:32N 47°39' W 122°22'0 0.0
2016-Nov-30 20:29N 47°39' W 122°22'0 0.1
2016-Nov-30 19:33N 47°39' W 122°22'0 0.0
2016-Nov-30 18:33N 47°39' W 122°22'2 1.6
2016-Nov-30 17:34N 47°40' W 122°24'1 1.2
2016-Nov-30 16:33N 47°41' W 122°25'0 0.4
2016-Nov-30 15:34N 47°41' W 122°25'0 0.2
2016-Nov-30 14:33N 47°41' W 122°25'3 2.7
2016-Nov-30 13:33N 47°44' W 122°24'4 4.3
2016-Nov-30 12:33N 47°48' W 122°25'7 6.8
2016-Nov-30 11:33N 47°54' W 122°30'31 7.6
2016-Nov-30 07:27N 48°24' W 122°45'9 9.5
2016-Nov-30 06:33N 48°32' W 122°45'1110.3
2016-Nov-30 05:29N 48°43' W 122°46'45 9.1
2016-Nov-30 00:33N 49°17' W 123°30'141 8.2
2016-Nov-29 07:23N 50°31' W 126°37'29 9.7
2016-Nov-29 04:21N 50°50' W 127°12'7 9.1
2016-Nov-29 03:33N 50°54' W 127°21'8 8.2
2016-Nov-29 02:33N 50°58' W 127°32'8 7.9
2016-Nov-29 01:33N 51°04' W 127°41'28 4.4
2016-Nov-28 19:05N 51°31' W 127°52'1 0.2
2016-Nov-28 16:30N 51°31' W 127°51'290 7.2
2016-Nov-27 00:00N 55°36' W 132°12'230 6.4 1008.310.8 3.0 8.9
2016-Nov-25 12:00N 58°18' W 137°12'109 9.1 120 / 181005.010.8 10.0
2016-Nov-25 00:00N 59°24' W 140°00'182 7.6 140 / 121009.010.8 -1.0 9.4
2016-Nov-24 00:00N 60°12' W 145°48'   050 / 201007.0 5.4 5.0 9.4
Track history (hours):
 
Tides and Currents Weather Stations Pressure Air Temp Water Temp Dewpoint Dewpoint Depression Visibility Wind Speed Wind Dir Waves Ship Positions

Iver Foss

Owner: FOSS MARITIME CO, SEATTLE, WA. More information available from US FCC via Universal Licensing System and Coast Guard Vessel Documentation Center.

Last reported at 2016-Dec-03 09:30 UTC. Time now 2016-Dec-03 09:40 UTC.
Position N 47°39' W 122°22'.

Type: Tug. MMSI: 368351000.

Date/timePositionNaut miles runAvg speedWind from/ knotsBaromVisibWave heightAir tempDewpointWater temp
2016-Dec-03 09:30N 47°39' W 122°22'0 0.0
2016-Dec-03 08:33N 47°39' W 122°22'0 0.0
2016-Dec-03 07:33N 47°39' W 122°22'0 0.0
2016-Dec-03 06:33N 47°39' W 122°22'0 0.0
2016-Dec-03 05:32N 47°39' W 122°22'0 0.0
2016-Dec-03 04:32N 47°39' W 122°22'0 0.0
2016-Dec-03 03:32N 47°39' W 122°22'0 0.0
2016-Dec-03 02:33N 47°39' W 122°22'0 0.0
2016-Dec-03 01:33N 47°39' W 122°22'0 0.0
2016-Dec-03 00:33N 47°39' W 122°22'0 0.0
2016-Dec-02 23:32N 47°39' W 122°22'0 0.0
2016-Dec-02 22:32N 47°39' W 122°22'0 0.0
2016-Dec-02 21:33N 47°39' W 122°22'0 0.0
2016-Dec-02 20:32N 47°39' W 122°22'0 0.0
2016-Dec-02 19:33N 47°39' W 122°22'0 0.0
2016-Dec-02 18:33N 47°39' W 122°22'0 0.0
2016-Dec-02 17:24N 47°39' W 122°22'0 0.0
2016-Dec-02 16:32N 47°39' W 122°22'0 0.0
2016-Dec-02 15:26N 47°39' W 122°22'0 0.0
2016-Dec-02 14:33N 47°39' W 122°22'0 0.0
2016-Dec-02 13:33N 47°39' W 122°22'0 0.0
2016-Dec-02 12:33N 47°39' W 122°22'0 0.0
2016-Dec-02 11:33N 47°39' W 122°22'0 0.0
2016-Dec-02 10:33N 47°39' W 122°22'0 0.0
2016-Dec-02 09:30N 47°39' W 122°22'0 0.0
2016-Dec-02 08:32N 47°39' W 122°22'0 0.0
2016-Dec-02 07:33N 47°39' W 122°22'0 0.0
2016-Dec-02 06:33N 47°39' W 122°22'0 0.0
2016-Dec-02 05:33N 47°39' W 122°22'0 0.0
2016-Dec-02 04:33N 47°39' W 122°22'0 0.0
2016-Dec-02 03:33N 47°39' W 122°22'0 0.0
2016-Dec-02 02:33N 47°39' W 122°22'0 0.0
2016-Dec-02 01:30N 47°39' W 122°22'0 0.0
2016-Dec-02 00:32N 47°39' W 122°22'0 0.0
2016-Dec-01 23:29N 47°39' W 122°22'0 0.0
2016-Dec-01 22:33N 47°39' W 122°22'0 0.0
2016-Dec-01 21:33N 47°39' W 122°22'0 0.0
2016-Dec-01 20:33N 47°39' W 122°22'0 0.0
2016-Dec-01 19:29N 47°39' W 122°22'0 0.0
2016-Dec-01 18:33N 47°39' W 122°22'0 0.0
2016-Dec-01 17:33N 47°39' W 122°22'0 0.0
2016-Dec-01 16:33N 47°39' W 122°22'0 0.0
2016-Dec-01 15:32N 47°39' W 122°22'0 0.0
2016-Dec-01 14:33N 47°39' W 122°22'0 0.0
2016-Dec-01 13:32N 47°39' W 122°22'0 0.0
2016-Dec-01 12:33N 47°39' W 122°22'0 0.0
2016-Dec-01 11:33N 47°39' W 122°22'0 0.0
2016-Dec-01 10:32N 47°39' W 122°22'0 0.0
2016-Dec-01 09:32N 47°39' W 122°22'0 0.0
2016-Dec-01 08:33N 47°39' W 122°22'0 0.0
2016-Dec-01 07:32N 47°39' W 122°22'0 0.0
2016-Dec-01 06:33N 47°39' W 122°22'0 0.0
2016-Dec-01 05:33N 47°39' W 122°22'0 0.0
2016-Dec-01 04:33N 47°39' W 122°22'0 0.0
2016-Dec-01 03:30N 47°39' W 122°22'0 0.0
2016-Dec-01 02:32N 47°39' W 122°22'0 0.0
2016-Dec-01 01:33N 47°39' W 122°22'0 0.0
2016-Dec-01 00:32N 47°39' W 122°22'0 0.0
2016-Nov-30 23:32N 47°39' W 122°22'0 0.0
2016-Nov-30 22:32N 47°39' W 122°22'0 0.0
2016-Nov-30 21:32N 47°39' W 122°22'0 0.0
2016-Nov-30 20:29N 47°39' W 122°22'0 0.1
2016-Nov-30 19:33N 47°39' W 122°22'0 0.0
2016-Nov-30 18:33N 47°39' W 122°22'2 1.6
2016-Nov-30 17:34N 47°40' W 122°24'1 1.2
2016-Nov-30 16:33N 47°41' W 122°25'0 0.4
2016-Nov-30 15:34N 47°41' W 122°25'0 0.2
2016-Nov-30 14:33N 47°41' W 122°25'3 2.7
2016-Nov-30 13:33N 47°44' W 122°24'4 4.3
2016-Nov-30 12:33N 47°48' W 122°25'7 6.8
2016-Nov-30 11:33N 47°54' W 122°30'31 7.6
2016-Nov-30 07:27N 48°24' W 122°45'9 9.5
2016-Nov-30 06:33N 48°32' W 122°45'1110.3
2016-Nov-30 05:29N 48°43' W 122°46'45 9.1
2016-Nov-30 00:33N 49°17' W 123°30'141 8.2
2016-Nov-29 07:23N 50°31' W 126°37'29 9.7
2016-Nov-29 04:21N 50°50' W 127°12'7 9.1
2016-Nov-29 03:33N 50°54' W 127°21'8 8.2
2016-Nov-29 02:33N 50°58' W 127°32'8 7.9
2016-Nov-29 01:33N 51°04' W 127°41'28 4.4
2016-Nov-28 19:05N 51°31' W 127°52'1 0.2
2016-Nov-28 16:30N 51°31' W 127°51'290 7.2
2016-Nov-27 00:00N 55°36' W 132°12'230 6.4 1008.310.8 3.0 8.9
2016-Nov-25 12:00N 58°18' W 137°12'109 9.1 120 / 181005.010.8 10.0
2016-Nov-25 00:00N 59°24' W 140°00'182 7.6 140 / 121009.010.8 -1.0 9.4
2016-Nov-24 00:00N 60°12' W 145°48'   050 / 201007.0 5.4 5.0 9.4

Dump ship's entire track history